Time;durP1;ratioP1;P1;durP2;ratioP2;P2;SDS_P1;SDS_P2;PMS_P1;PMS_P2;Temp;Humidity;BMP_temperature;BMP_pressure;BME280_temperature;BME280_humidity;BME280_pressure;Samples;Min_cycle;Max_cycle;Signal;HPM_P1;HPM_P2
2023/08/13 00:01:04;;;;;;;3.63;2.87;;;16.70;99.90;;;;;;4826903;29;20694;-85
2023/08/13 00:03:29;;;;;;;5.97;2.90;;;16.70;99.90;;;;;;4826619;29;20220;-86
2023/08/13 00:05:55;;;;;;;8.80;3.10;;;16.60;99.90;;;;;;4825775;29;20915;-85
2023/08/13 00:08:21;;;;;;;7.77;3.13;;;16.70;99.90;;;;;;4826879;29;20308;-85
2023/08/13 00:10:46;;;;;;;11.83;3.03;;;16.60;99.90;;;;;;4826596;29;20185;-85
2023/08/13 00:13:13;;;;;;;5.43;2.70;;;16.60;99.90;;;;;;4826604;29;20194;-85
2023/08/13 00:15:38;;;;;;;9.00;2.83;;;16.70;99.90;;;;;;4826620;29;20189;-85
2023/08/13 00:18:04;;;;;;;7.33;3.17;;;16.70;99.90;;;;;;4826887;29;20427;-85
2023/08/13 00:20:30;;;;;;;4.60;3.60;;;16.70;99.90;;;;;;4826707;29;20182;-86
2023/08/13 00:22:56;;;;;;;3.33;2.80;;;16.80;99.90;;;;;;4826239;29;20894;-85
2023/08/13 00:25:22;;;;;;;6.07;2.90;;;16.70;99.90;;;;;;4826441;29;20466;-85
2023/08/13 00:27:47;;;;;;;7.43;3.67;;;16.70;99.90;;;;;;4826275;29;20662;-85
2023/08/13 00:30:13;;;;;;;4.93;3.10;;;16.60;99.90;;;;;;4826582;29;20277;-85
2023/08/13 00:32:38;;;;;;;5.20;2.80;;;16.70;99.90;;;;;;4826328;29;20189;-85
2023/08/13 00:35:05;;;;;;;4.63;3.07;;;16.60;99.90;;;;;;4826645;29;20188;-85
2023/08/13 00:37:32;;;;;;;15.40;3.40;;;16.50;99.90;;;;;;4826237;29;20182;-85
2023/08/13 00:39:58;;;;;;;6.60;3.57;;;16.60;99.90;;;;;;4826009;29;20441;-85
2023/08/13 00:42:23;;;;;;;6.50;2.90;;;16.50;99.90;;;;;;4826190;29;20427;-85
2023/08/13 00:44:49;;;;;;;6.73;3.57;;;16.40;99.90;;;;;;4809655;29;20189;-85
2023/08/13 00:47:14;;;;;;;7.13;2.50;;;16.40;99.90;;;;;;4826129;29;20241;-85
2023/08/13 00:49:40;;;;;;;6.70;2.97;;;16.40;99.90;;;;;;4826048;29;20217;-85
2023/08/13 00:52:06;;;;;;;6.50;3.00;;;16.40;99.90;;;;;;4826113;29;20530;-85
2023/08/13 00:54:33;;;;;;;7.47;3.57;;;16.40;99.90;;;;;;4809608;29;20665;-85
2023/08/13 00:56:59;;;;;;;4.60;3.20;;;16.40;99.90;;;;;;4825995;29;20423;-85
2023/08/13 00:59:26;;;;;;;3.53;2.90;;;16.30;99.90;;;;;;4826141;29;20427;-85
2023/08/13 01:01:52;;;;;;;5.20;3.07;;;16.40;99.90;;;;;;4826050;29;20425;-85
2023/08/13 01:04:17;;;;;;;4.77;2.90;;;16.30;99.90;;;;;;4825918;29;20427;-85
2023/08/13 01:07:02;;;;;;;4.63;2.80;;;16.30;99.90;;;;;;4825858;29;20556;-85
2023/08/13 01:09:39;;;;;;;6.20;2.80;;;16.30;99.90;;;;;;4825665;29;20220;-90
2023/08/13 01:12:33;;;;;;;8.80;3.03;;;16.20;99.90;;;;;;4825846;29;20415;-85
2023/08/13 01:15:07;;;;;;;10.93;3.73;;;16.30;99.90;;;;;;4825734;29;20459;-85
2023/08/13 01:17:35;;;;;;;3.40;2.70;;;16.20;99.90;;;;;;4825567;29;20788;-85
2023/08/13 01:20:05;;;;;;;5.70;3.10;;;16.20;99.90;;;;;;4825607;29;20772;-84
2023/08/13 01:22:35;;;;;;;8.40;4.67;;;16.10;99.90;;;;;;4827354;29;20404;-85
2023/08/13 01:25:00;;;;;;;10.00;2.77;;;16.00;99.90;;;;;;4826336;29;20573;-84
2023/08/13 01:27:32;;;;;;;7.97;3.50;;;16.10;99.90;;;;;;4809267;29;20521;-85
2023/08/13 01:30:10;;;;;;;7.90;3.33;;;16.00;99.90;;;;;;4825663;29;20254;-85
2023/08/13 01:32:42;;;;;;;7.50;3.67;;;16.00;99.90;;;;;;4825432;29;20407;-85
2023/08/13 01:35:09;;;;;;;7.20;2.87;;;15.90;99.90;;;;;;4825643;29;20435;-85
2023/08/13 01:37:36;;;;;;;5.20;3.30;;;15.90;99.90;;;;;;4825252;29;20794;-85
2023/08/13 01:40:03;;;;;;;3.93;2.77;;;15.90;99.90;;;;;;4825417;29;20837;-85
2023/08/13 01:42:32;;;;;;;4.40;3.00;;;15.80;99.90;;;;;;4825436;29;20435;-85
2023/08/13 01:44:58;;;;;;;3.43;3.13;;;15.80;99.90;;;;;;4825409;29;20472;-85
2023/08/13 01:47:24;;;;;;;4.80;3.13;;;15.80;99.90;;;;;;4825221;29;20430;-85
2023/08/13 01:49:49;;;;;;;4.67;2.67;;;15.70;99.90;;;;;;4825075;29;20326;-85
2023/08/13 01:52:15;;;;;;;11.10;3.93;;;15.70;99.90;;;;;;4825309;29;20250;-85
2023/08/13 01:54:40;;;;;;;5.23;2.87;;;15.70;99.90;;;;;;4824844;29;20188;-85
2023/08/13 01:57:06;;;;;;;7.90;3.40;;;15.60;99.90;;;;;;4825411;29;20535;-85
2023/08/13 01:59:31;;;;;;;6.00;3.30;;;15.60;99.90;;;;;;4808624;29;20284;-86
2023/08/13 02:01:57;;;;;;;7.67;3.80;;;15.60;99.90;;;;;;4825198;29;20190;-85
2023/08/13 02:04:22;;;;;;;7.13;3.37;;;15.60;99.90;;;;;;4825287;29;20193;-85
2023/08/13 02:06:48;;;;;;;4.73;2.53;;;15.50;99.90;;;;;;4824995;29;20630;-85
2023/08/13 02:09:14;;;;;;;10.13;3.23;;;15.50;99.90;;;;;;4825095;29;20217;-84
2023/08/13 02:11:39;;;;;;;6.67;3.60;;;15.50;99.90;;;;;;4824963;29;20198;-85
2023/08/13 02:14:05;;;;;;;9.07;3.10;;;15.40;99.90;;;;;;4824984;29;20189;-85
2023/08/13 02:16:30;;;;;;;11.10;3.90;;;15.40;99.90;;;;;;4824982;29;20277;-85
2023/08/13 02:18:56;;;;;;;10.57;3.80;;;15.30;99.90;;;;;;4824748;29;20197;-85
2023/08/13 02:21:21;;;;;;;7.50;3.50;;;15.30;99.90;;;;;;4824768;29;20619;-85
2023/08/13 02:23:47;;;;;;;9.87;4.10;;;15.40;99.90;;;;;;4824720;29;20194;-85
2023/08/13 02:26:14;;;;;;;5.97;3.50;;;15.40;99.90;;;;;;4825154;29;20324;-85
2023/08/13 02:28:40;;;;;;;5.93;3.30;;;15.30;99.90;;;;;;4825934;29;20229;-85
2023/08/13 02:31:05;;;;;;;5.70;3.00;;;15.30;99.90;;;;;;4827896;29;20496;-84
2023/08/13 02:33:31;;;;;;;6.73;3.33;;;15.30;99.90;;;;;;4828100;29;20426;-85
2023/08/13 02:35:57;;;;;;;10.57;3.87;;;15.20;99.90;;;;;;4827963;29;20654;-85
2023/08/13 02:38:22;;;;;;;6.07;4.27;;;15.20;99.90;;;;;;4828302;29;20220;-85
2023/08/13 02:40:48;;;;;;;4.63;3.10;;;15.20;99.90;;;;;;4827750;29;20204;-85
2023/08/13 02:43:13;;;;;;;5.57;3.33;;;15.10;99.90;;;;;;4827402;29;20272;-84
2023/08/13 02:45:39;;;;;;;7.50;3.43;;;15.10;99.90;;;;;;4811374;29;20190;-85
2023/08/13 02:48:05;;;;;;;7.33;3.23;;;15.10;99.90;;;;;;4828101;29;20633;-85
2023/08/13 02:50:30;;;;;;;8.30;3.33;;;15.00;99.90;;;;;;4827614;29;20186;-84
2023/08/13 02:52:56;;;;;;;7.40;3.67;;;15.00;99.90;;;;;;4827477;29;20907;-85
2023/08/13 02:55:21;;;;;;;10.70;3.57;;;15.00;99.90;;;;;;4811810;29;20591;-85
2023/08/13 02:57:47;;;;;;;8.60;3.87;;;15.00;99.90;;;;;;4827383;29;20242;-85
2023/08/13 03:00:13;;;;;;;7.83;3.70;;;14.90;99.90;;;;;;4827529;29;20186;-85
2023/08/13 03:02:38;;;;;;;7.57;3.67;;;14.90;99.90;;;;;;4827318;29;20251;-85
2023/08/13 03:05:04;;;;;;;7.17;3.10;;;14.90;99.90;;;;;;4827302;29;20931;-85
2023/08/13 03:07:30;;;;;;;7.83;4.33;;;14.90;99.90;;;;;;4827436;29;20186;-84
2023/08/13 03:09:55;;;;;;;7.80;3.90;;;14.80;99.90;;;;;;4827407;29;20225;-84
2023/08/13 03:12:21;;;;;;;7.13;3.40;;;14.80;99.90;;;;;;4827297;29;20196;-84
2023/08/13 03:14:47;;;;;;;7.30;4.00;;;14.80;99.90;;;;;;4827512;29;20345;-85
2023/08/13 03:17:13;;;;;;;14.37;3.50;;;14.80;99.90;;;;;;4827103;29;20281;-84
2023/08/13 03:19:39;;;;;;;8.53;3.57;;;14.70;99.90;;;;;;4827332;29;20434;-85
2023/08/13 03:22:04;;;;;;;9.00;3.97;;;14.70;99.90;;;;;;4827473;29;20543;-84
2023/08/13 03:24:30;;;;;;;6.27;3.70;;;14.60;99.90;;;;;;4810700;29;20312;-84
2023/08/13 03:26:55;;;;;;;8.40;3.70;;;14.60;99.90;;;;;;4827112;29;20251;-84
2023/08/13 03:29:21;;;;;;;8.30;3.70;;;14.60;99.90;;;;;;4828259;29;20224;-83
2023/08/13 03:31:46;;;;;;;5.70;3.13;;;14.60;99.90;;;;;;4828929;29;20192;-85
2023/08/13 03:34:12;;;;;;;11.13;4.23;;;14.50;99.90;;;;;;4827388;29;20221;-84
2023/08/13 03:36:37;;;;;;;11.33;3.90;;;14.50;99.90;;;;;;4827050;29;20193;-86
2023/08/13 03:39:03;;;;;;;7.50;3.77;;;14.50;99.90;;;;;;4826859;29;20596;-85
2023/08/13 03:41:29;;;;;;;7.33;3.37;;;14.50;99.90;;;;;;4826684;29;20194;-85
2023/08/13 03:43:54;;;;;;;7.00;4.40;;;14.50;99.90;;;;;;4827342;29;20194;-85
2023/08/13 03:46:20;;;;;;;23.13;4.70;;;14.40;99.90;;;;;;4826886;29;20528;-85
2023/08/13 03:48:45;;;;;;;5.60;3.50;;;14.40;99.90;;;;;;4826476;29;20222;-85
2023/08/13 03:51:11;;;;;;;6.93;3.67;;;14.40;99.90;;;;;;4826467;29;20190;-84
2023/08/13 03:53:36;;;;;;;8.87;3.77;;;14.30;99.90;;;;;;4826735;29;20227;-84
2023/08/13 03:56:05;;;;;;;7.03;3.80;;;14.30;99.90;;;;;;4795328;29;20197;-84
2023/08/13 03:58:31;;;;;;;6.07;4.20;;;14.30;99.90;;;;;;4826629;29;20240;-83
2023/08/13 04:01:06;;;;;;;8.47;3.77;;;14.20;99.90;;;;;;4826698;29;21600;-84
2023/08/13 04:03:32;;;;;;;12.60;3.83;;;14.20;99.90;;;;;;4826552;29;20181;-84
2023/08/13 04:05:57;;;;;;;8.60;4.03;;;14.20;99.90;;;;;;4826399;29;20423;-84
2023/08/13 04:08:23;;;;;;;10.60;3.60;;;14.20;99.90;;;;;;4826581;29;20626;-84
2023/08/13 04:10:52;;;;;;;10.57;3.63;;;14.10;99.90;;;;;;4826208;29;20543;-84
2023/08/13 04:13:19;;;;;;;14.43;4.60;;;14.10;99.90;;;;;;4826477;29;20620;-84
2023/08/13 04:15:45;;;;;;;6.03;3.97;;;14.10;99.90;;;;;;4826203;29;20855;-84
2023/08/13 04:18:10;;;;;;;9.53;3.93;;;14.10;99.90;;;;;;4826485;29;20459;-83
2023/08/13 04:20:39;;;;;;;10.40;3.80;;;14.10;99.90;;;;;;4826196;29;20415;-84
2023/08/13 04:23:05;;;;;;;6.50;3.80;;;14.10;99.90;;;;;;4826362;29;20185;-84
2023/08/13 04:25:31;;;;;;;6.20;3.60;;;14.10;99.90;;;;;;4826150;29;20535;-83
2023/08/13 04:27:57;;;;;;;4.50;3.43;;;14.00;99.90;;;;;;4825737;29;20978;-84
2023/08/13 04:30:22;;;;;;;14.10;5.10;;;14.00;99.90;;;;;;4826491;29;20434;-84
2023/08/13 04:32:55;;;;;;;10.37;4.50;;;14.00;99.90;;;;;;4826221;29;20189;-84
2023/08/13 04:35:22;;;;;;;7.67;4.23;;;14.10;99.90;;;;;;4825968;29;20190;-84
2023/08/13 04:37:51;;;;;;;9.60;3.50;;;14.10;99.90;;;;;;4825893;29;20411;-84
2023/08/13 04:40:17;;;;;;;6.37;4.03;;;14.10;99.90;;;;;;4825914;29;20795;-84
2023/08/13 04:42:43;;;;;;;7.23;4.00;;;14.10;99.90;;;;;;4826059;29;20427;-84
2023/08/13 04:45:11;;;;;;;6.20;4.30;;;14.10;99.90;;;;;;4826544;29;20430;-84
2023/08/13 04:47:36;;;;;;;14.60;4.90;;;14.10;99.90;;;;;;4826047;29;20514;-84
2023/08/13 04:50:02;;;;;;;11.43;4.23;;;14.10;99.90;;;;;;4825517;29;20497;-84
2023/08/13 04:52:28;;;;;;;19.73;6.17;;;14.10;99.90;;;;;;4809193;29;20279;-84
2023/08/13 04:54:53;;;;;;;10.23;5.03;;;14.20;99.90;;;;;;4825976;29;20426;-85
2023/08/13 04:57:19;;;;;;;7.60;3.70;;;14.20;99.90;;;;;;4825453;29;20274;-84
2023/08/13 04:59:45;;;;;;;9.73;4.57;;;14.30;99.90;;;;;;4809253;29;20202;-85
2023/08/13 05:02:10;;;;;;;10.53;4.37;;;14.20;99.90;;;;;;4825853;29;20190;-84
2023/08/13 05:04:36;;;;;;;9.47;4.53;;;14.30;99.90;;;;;;4825434;29;20273;-84
2023/08/13 05:07:02;;;;;;;11.37;5.00;;;14.30;99.90;;;;;;4825718;29;20194;-84
2023/08/13 05:09:28;;;;;;;9.80;4.87;;;14.30;99.90;;;;;;4825464;29;20220;-84
2023/08/13 05:11:53;;;;;;;17.83;4.73;;;14.40;99.90;;;;;;4825071;29;20419;-84
2023/08/13 05:14:20;;;;;;;6.87;5.40;;;14.40;99.90;;;;;;4825587;29;20189;-85
2023/08/13 05:16:45;;;;;;;10.30;5.30;;;14.50;99.90;;;;;;4825310;29;20244;-85
2023/08/13 05:19:11;;;;;;;10.87;4.80;;;14.60;99.90;;;;;;4825232;29;20462;-85
2023/08/13 05:21:36;;;;;;;8.40;4.77;;;14.60;99.90;;;;;;4825546;29;20213;-85
2023/08/13 05:24:02;;;;;;;10.67;5.40;;;14.70;99.90;;;;;;4825065;29;20238;-85
2023/08/13 05:26:28;;;;;;;9.63;4.93;;;14.70;99.90;;;;;;4825456;29;20174;-85
2023/08/13 05:28:54;;;;;;;7.07;4.47;;;14.80;99.90;;;;;;4825081;29;20611;-85
2023/08/13 05:31:19;;;;;;;13.10;5.03;;;14.90;99.90;;;;;;4809254;29;20205;-85
2023/08/13 05:33:45;;;;;;;8.50;4.90;;;15.00;99.90;;;;;;4824974;29;20471;-85
2023/08/13 05:36:10;;;;;;;10.93;4.37;;;15.00;99.90;;;;;;4825505;29;20223;-85
2023/08/13 05:38:36;;;;;;;11.83;5.10;;;15.10;99.90;;;;;;4809124;29;20585;-85
2023/08/13 05:41:01;;;;;;;13.40;5.40;;;15.20;99.90;;;;;;4825028;29;20186;-85
2023/08/13 05:43:27;;;;;;;8.90;4.43;;;15.30;99.90;;;;;;4808953;29;20193;-85
2023/08/13 05:45:52;;;;;;;8.60;3.90;;;15.40;99.90;;;;;;4824915;29;20634;-85
2023/08/13 05:48:18;;;;;;;6.80;4.17;;;15.50;99.90;;;;;;4824960;29;20224;-85
2023/08/13 05:50:44;;;;;;;8.80;4.40;;;15.60;99.90;;;;;;4825021;29;20296;-85
2023/08/13 05:53:10;;;;;;;7.93;4.33;;;15.60;99.90;;;;;;4825080;29;20235;-85
2023/08/13 05:55:35;;;;;;;8.63;4.40;;;15.70;99.90;;;;;;4824797;29;20189;-85
2023/08/13 05:58:01;;;;;;;8.40;4.30;;;15.70;99.90;;;;;;4824821;29;20217;-85
2023/08/13 06:00:27;;;;;;;7.30;4.40;;;15.80;99.90;;;;;;4824927;29;20613;-85
2023/08/13 06:02:52;;;;;;;8.53;4.53;;;15.80;99.90;;;;;;4825514;29;20237;-85
2023/08/13 06:05:18;;;;;;;4.80;4.30;;;15.90;99.90;;;;;;4828534;29;20442;-85
2023/08/13 06:07:44;;;;;;;12.30;4.80;;;16.00;99.90;;;;;;4828419;29;20714;-85
2023/08/13 06:10:09;;;;;;;9.47;4.90;;;16.10;99.90;;;;;;4812039;29;20200;-85
2023/08/13 06:12:35;;;;;;;7.43;4.40;;;16.20;99.90;;;;;;4828495;29;20197;-85
2023/08/13 06:15:00;;;;;;;9.80;4.13;;;16.30;99.90;;;;;;4828243;29;20193;-85
2023/08/13 06:17:26;;;;;;;6.30;4.07;;;16.40;99.90;;;;;;4828437;29;20192;-85
2023/08/13 06:19:52;;;;;;;7.67;4.20;;;16.40;99.90;;;;;;4827916;29;20204;-85
2023/08/13 06:22:17;;;;;;;8.57;4.03;;;16.50;99.90;;;;;;4827903;29;20190;-85
2023/08/13 06:24:43;;;;;;;13.10;5.27;;;16.60;99.90;;;;;;4827979;29;20233;-85
2023/08/13 06:27:09;;;;;;;9.90;4.00;;;16.70;99.90;;;;;;4828012;29;20650;-84
2023/08/13 06:29:34;;;;;;;6.07;3.20;;;16.70;99.90;;;;;;4827809;29;20221;-85
2023/08/13 06:32:00;;;;;;;10.20;4.07;;;16.80;99.90;;;;;;4828017;29;20638;-85
2023/08/13 06:34:26;;;;;;;6.90;3.90;;;16.80;99.90;;;;;;4827507;29;20246;-85
2023/08/13 06:36:53;;;;;;;10.80;3.20;;;16.90;99.90;;;;;;4827637;29;20554;-85
2023/08/13 06:39:19;;;;;;;8.57;3.27;;;17.00;99.90;;;;;;4828010;29;20405;-85
2023/08/13 06:41:45;;;;;;;8.57;3.33;;;17.20;99.90;;;;;;4828379;29;20439;-85
2023/08/13 06:44:20;;;;;;;5.70;3.43;;;17.40;99.90;;;;;;4827591;29;20190;-88
2023/08/13 06:46:49;;;;;;;6.37;2.83;;;17.30;99.90;;;;;;4811596;29;20188;-88
2023/08/13 06:49:15;;;;;;;6.20;3.30;;;17.40;99.90;;;;;;4811276;29;20569;-88
2023/08/13 06:51:41;;;;;;;6.57;3.40;;;17.50;99.90;;;;;;4796418;29;20516;-88
2023/08/13 06:54:07;;;;;;;6.10;3.23;;;17.60;99.90;;;;;;4810945;29;20441;-88
2023/08/13 06:56:35;;;;;;;7.10;2.73;;;17.80;99.90;;;;;;4811141;29;20400;-88
2023/08/13 06:59:01;;;;;;;5.20;3.10;;;18.00;99.90;;;;;;4827359;29;20431;-88
2023/08/13 07:01:27;;;;;;;10.17;2.70;;;18.00;99.90;;;;;;4827091;29;20757;-88
2023/08/13 07:03:53;;;;;;;7.93;3.10;;;18.10;99.90;;;;;;4795897;29;20526;-88
2023/08/13 07:06:18;;;;;;;8.03;3.10;;;18.20;99.90;;;;;;4827583;29;20185;-87
2023/08/13 07:08:44;;;;;;;6.30;2.43;;;18.40;99.90;;;;;;4810941;29;20712;-88
2023/08/13 07:11:10;;;;;;;4.87;2.50;;;18.50;99.90;;;;;;4810481;29;20219;-88
2023/08/13 07:13:36;;;;;;;4.33;2.27;;;18.50;99.90;;;;;;4827142;29;20184;-88
2023/08/13 07:16:01;;;;;;;8.20;2.73;;;18.60;99.90;;;;;;4826839;29;20427;-88
2023/08/13 07:18:27;;;;;;;10.50;2.57;;;18.70;99.90;;;;;;4811017;29;20196;-88
2023/08/13 07:20:53;;;;;;;6.70;2.47;;;18.70;99.90;;;;;;4810865;29;20545;-88
2023/08/13 07:23:18;;;;;;;6.20;2.67;;;18.80;99.90;;;;;;4827114;29;20193;-88
2023/08/13 07:25:44;;;;;;;6.60;3.90;;;19.00;99.90;;;;;;4795693;29;20248;-88
2023/08/13 07:28:09;;;;;;;5.53;3.27;;;19.20;99.90;;;;;;4826633;29;20677;-87
2023/08/13 07:30:35;;;;;;;3.13;2.17;;;19.20;99.90;;;;;;4827090;29;20273;-87
2023/08/13 07:33:01;;;;;;;3.67;2.33;;;19.40;99.90;;;;;;4810433;29;20197;-88
2023/08/13 07:35:26;;;;;;;7.50;2.13;;;19.50;99.90;;;;;;4810620;29;20193;-88
2023/08/13 07:37:52;;;;;;;4.47;2.20;;;19.70;99.90;;;;;;4826631;29;20265;-88
2023/08/13 07:40:18;;;;;;;4.93;2.20;;;19.60;99.90;;;;;;4826761;29;20184;-88
2023/08/13 07:42:44;;;;;;;5.07;2.43;;;20.00;99.90;;;;;;4810562;29;20281;-87
2023/08/13 07:45:10;;;;;;;3.83;2.33;;;20.10;99.90;;;;;;4826573;29;20427;-88
2023/08/13 07:47:36;;;;;;;11.63;2.57;;;20.20;99.90;;;;;;4826656;29;20457;-88
2023/08/13 07:50:04;;;;;;;5.80;2.13;;;20.30;99.90;;;;;;4826164;29;20523;-88
2023/08/13 07:52:31;;;;;;;5.23;2.83;;;20.40;99.90;;;;;;4826159;29;20670;-88
2023/08/13 07:54:57;;;;;;;4.33;2.40;;;20.60;99.90;;;;;;4810122;29;20438;-88
2023/08/13 07:57:22;;;;;;;6.30;2.17;;;20.70;99.90;;;;;;4826449;29;20448;-87
2023/08/13 07:59:48;;;;;;;4.13;1.77;;;20.90;99.90;;;;;;4810711;29;20276;-88
2023/08/13 08:02:13;;;;;;;5.27;1.93;;;21.10;99.90;;;;;;4809744;29;20632;-88
2023/08/13 08:04:39;;;;;;;6.70;2.53;;;21.30;99.90;;;;;;4826367;29;20203;-88
2023/08/13 08:07:05;;;;;;;3.40;2.03;;;21.20;99.90;;;;;;4809769;29;20638;-88
2023/08/13 08:09:30;;;;;;;4.60;2.23;;;21.40;99.90;;;;;;4826208;29;20255;-87
2023/08/13 08:11:56;;;;;;;4.67;2.20;;;21.60;99.90;;;;;;4825920;29;20189;-88
2023/08/13 08:14:21;;;;;;;5.87;2.37;;;21.50;99.90;;;;;;4795094;29;20246;-87
2023/08/13 08:16:47;;;;;;;5.97;2.00;;;21.60;99.90;;;;;;4825787;29;20208;-87
2023/08/13 08:19:13;;;;;;;9.13;2.23;;;21.80;99.90;;;;;;4809610;29;20332;-88
2023/08/13 08:21:39;;;;;;;5.80;2.20;;;22.10;99.90;;;;;;4826198;29;20186;-87
2023/08/13 08:24:05;;;;;;;4.60;2.33;;;22.30;99.90;;;;;;4825493;29;20415;-88
2023/08/13 08:26:31;;;;;;;8.60;2.30;;;22.40;99.90;;;;;;4825135;29;20166;-87
2023/08/13 08:28:57;;;;;;;4.77;2.07;;;22.50;99.90;;;;;;4825944;29;20478;-88
2023/08/13 08:31:23;;;;;;;6.97;2.57;;;22.50;99.90;;;;;;4825953;29;20797;-86
2023/08/13 08:33:49;;;;;;;5.77;2.60;;;22.50;99.90;;;;;;4825829;29;20446;-87
2023/08/13 08:36:15;;;;;;;5.53;1.83;;;22.70;99.90;;;;;;4825502;29;20514;-87
2023/08/13 08:38:41;;;;;;;5.57;1.97;;;22.70;99.90;;;;;;4825718;29;20194;-87
2023/08/13 08:41:08;;;;;;;6.93;1.90;;;22.90;99.90;;;;;;4825556;29;20181;-86
2023/08/13 08:43:36;;;;;;;7.40;2.30;;;23.30;99.90;;;;;;4809330;29;20460;-87
2023/08/13 08:46:04;;;;;;;4.37;1.93;;;23.20;99.90;;;;;;4825852;29;20475;-88
2023/08/13 08:48:31;;;;;;;5.67;1.83;;;23.10;99.90;;;;;;4826098;29;20474;-89
2023/08/13 08:50:57;;;;;;;6.87;1.73;;;23.20;99.90;;;;;;4809329;29;20480;-88
2023/08/13 08:53:24;;;;;;;6.57;1.90;;;23.50;99.90;;;;;;4825741;29;20399;-89
2023/08/13 08:55:50;;;;;;;5.07;2.17;;;23.80;99.90;;;;;;4809278;29;20482;-88
2023/08/13 08:58:16;;;;;;;4.90;1.70;;;24.00;99.90;;;;;;4825663;29;20458;-88
2023/08/13 09:00:42;;;;;;;3.40;1.53;;;24.20;99.90;;;;;;4825535;29;20627;-90
2023/08/13 09:03:07;;;;;;;4.80;1.70;;;24.10;99.90;;;;;;4825750;29;20277;-90
2023/08/13 09:05:34;;;;;;;2.97;1.60;;;24.20;99.90;;;;;;4809235;29;20197;-91
2023/08/13 09:07:59;;;;;;;6.87;1.77;;;24.60;99.90;;;;;;4824996;29;20178;-91
2023/08/13 09:10:31;;;;;;;3.90;1.60;;;24.20;99.90;;;;;;4825364;29;20904;-91
2023/08/13 09:12:56;;;;;;;5.23;1.70;;;24.10;99.90;;;;;;4825171;29;20170;-91
2023/08/13 09:15:22;;;;;;;7.00;1.97;;;24.00;99.90;;;;;;4825996;29;20426;-87
2023/08/13 09:17:48;;;;;;;6.30;1.70;;;23.80;99.90;;;;;;4825362;29;20186;-88
2023/08/13 09:20:18;;;;;;;7.23;2.20;;;23.60;99.90;;;;;;4825378;29;20188;-88
2023/08/13 09:22:48;;;;;;;3.07;1.60;;;23.60;99.90;;;;;;4808981;29;20435;-87
2023/08/13 09:25:15;;;;;;;9.03;2.07;;;23.60;99.90;;;;;;4815004;29;20482;-88
2023/08/13 09:27:42;;;;;;;7.10;1.63;;;24.00;99.90;;;;;;4791336;29;20515;-88
2023/08/13 09:30:19;;;;;;;5.87;1.63;;;24.20;99.90;;;;;;4806887;29;20486;-88
2023/08/13 09:32:46;;;;;;;3.20;1.70;;;24.80;99.90;;;;;;4806843;29;20408;-88
2023/08/13 09:35:12;;;;;;;6.37;1.77;;;25.50;99.90;;;;;;4806723;29;20442;-87
2023/08/13 09:37:38;;;;;;;5.10;1.67;;;25.90;99.90;;;;;;4805943;29;20420;-89
2023/08/13 09:40:05;;;;;;;3.07;1.93;;;25.80;99.90;;;;;;4806396;29;20186;-87
2023/08/13 09:42:32;;;;;;;6.63;2.17;;;26.10;99.90;;;;;;4806591;29;20423;-87
2023/08/13 09:45:02;;;;;;;5.43;1.87;;;25.90;99.90;;;;;;4806160;29;20838;-90
2023/08/13 09:47:29;;;;;;;3.50;1.40;;;26.20;99.90;;;;;;4806414;29;20416;-86
2023/08/13 09:49:56;;;;;;;5.17;2.10;;;26.80;99.90;;;;;;4806041;29;20561;-86
2023/08/13 09:52:26;;;;;;;3.97;2.10;;;26.70;99.90;;;;;;4789784;29;20920;-86
2023/08/13 09:55:11;;;;;;;8.50;2.13;;;26.60;99.90;;;;;;4806573;29;20480;-88
2023/08/13 09:57:41;;;;;;;5.37;1.60;;;26.20;99.90;;;;;;4806653;29;20408;-86
2023/08/13 10:00:09;;;;;;;4.20;2.20;;;25.80;99.90;;;;;;4806067;29;20429;-90
2023/08/13 10:02:40;;;;;;;6.60;2.03;;;25.80;99.90;;;;;;4806121;29;20947;-85
2023/08/13 10:05:06;;;;;;;6.33;2.20;;;25.90;99.90;;;;;;4806006;29;20483;-85
2023/08/13 10:07:32;;;;;;;3.90;1.57;;;25.60;99.90;;;;;;4790139;29;20416;-85
2023/08/13 10:10:03;;;;;;;5.23;2.07;;;25.60;99.90;;;;;;4805854;29;20482;-86
2023/08/13 10:12:30;;;;;;;4.53;1.60;;;25.70;99.90;;;;;;4806199;29;20412;-85
2023/08/13 10:14:56;;;;;;;5.73;2.53;;;25.50;99.90;;;;;;4790092;29;20781;-86
2023/08/13 10:17:26;;;;;;;8.03;2.50;;;25.40;99.90;;;;;;4806008;29;20926;-86
2023/08/13 10:19:55;;;;;;;7.60;2.00;;;25.70;99.90;;;;;;4806132;29;20432;-85
2023/08/13 10:22:30;;;;;;;5.30;1.87;;;25.80;99.90;;;;;;4806143;29;20428;-85
2023/08/13 10:24:56;;;;;;;3.30;2.03;;;25.80;99.90;;;;;;4806211;29;20462;-85
2023/08/13 10:27:22;;;;;;;4.23;2.23;;;25.90;99.90;;;;;;4789521;29;20416;-86
2023/08/13 10:29:48;;;;;;;4.73;1.90;;;26.30;99.90;;;;;;4806123;29;20275;-85
2023/08/13 10:32:15;;;;;;;4.67;2.13;;;26.30;99.90;;;;;;4805722;29;20431;-87
2023/08/13 10:34:46;;;;;;;5.07;1.80;;;26.50;99.90;;;;;;4806138;29;20191;-86
2023/08/13 10:37:18;;;;;;;5.63;1.83;;;26.70;99.90;;;;;;4805786;29;20446;-87
2023/08/13 10:39:46;;;;;;;4.73;1.80;;;26.60;99.90;;;;;;4806038;29;20432;-87
2023/08/13 10:42:26;;;;;;;8.40;2.50;;;26.60;99.90;;;;;;4805468;29;20432;-88
2023/08/13 10:45:04;;;;;;;4.37;2.57;;;26.50;99.90;;;;;;4805839;29;20436;-87
2023/08/13 10:47:50;;;;;;;6.10;2.33;;;26.50;99.90;;;;;;4805983;29;20426;-87
2023/08/13 10:50:22;;;;;;;7.27;2.30;;;26.80;99.90;;;;;;4808233;29;20442;-85
2023/08/13 10:52:52;;;;;;;8.17;3.03;;;26.60;99.90;;;;;;4809378;29;20742;-86
2023/08/13 10:55:22;;;;;;;4.63;2.20;;;26.20;99.90;;;;;;4809081;29;20408;-86
2023/08/13 10:57:54;;;;;;;6.17;2.67;;;26.20;99.90;;;;;;4809341;29;20782;-86
2023/08/13 11:00:25;;;;;;;6.03;2.33;;;26.30;99.90;;;;;;4808688;29;20463;-86
2023/08/13 11:03:15;;;;;;;7.70;2.30;;;26.40;99.90;;;;;;4809561;29;20513;-87
2023/08/13 11:05:42;;;;;;;9.10;2.50;;;26.60;99.90;;;;;;4809397;29;20428;-85
2023/08/13 11:08:08;;;;;;;6.33;2.23;;;26.70;99.90;;;;;;4808722;29;20478;-85
2023/08/13 11:10:35;;;;;;;8.67;2.90;;;26.70;99.90;;;;;;4809029;29;20462;-87
2023/08/13 11:13:05;;;;;;;7.00;2.87;;;26.80;99.90;;;;;;4793443;29;20182;-87
2023/08/13 11:15:30;;;;;;;6.67;2.10;;;26.90;99.90;;;;;;4808631;29;20422;-86
2023/08/13 11:17:56;;;;;;;5.67;2.90;;;27.30;99.90;;;;;;4808805;29;20515;-86
2023/08/13 11:20:23;;;;;;;7.10;2.10;;;27.50;99.90;;;;;;4808444;29;20217;-86
2023/08/13 11:22:49;;;;;;;6.03;2.20;;;27.70;99.90;;;;;;4808961;29;20222;-87
2023/08/13 11:25:15;;;;;;;6.00;2.43;;;27.40;99.90;;;;;;4818700;29;20509;-87
2023/08/13 11:27:41;;;;;;;4.43;1.73;;;27.20;99.90;;;;;;4827945;29;20189;-94
2023/08/13 11:30:08;;;;;;;2.67;1.73;;;27.10;99.90;;;;;;4826463;29;20470;-87
2023/08/13 11:32:36;;;;;;;6.20;2.47;;;27.10;99.90;;;;;;4826544;29;20500;-86
2023/08/13 11:35:12;;;;;;;5.73;2.13;;;27.00;99.90;;;;;;4826811;29;20439;-88
2023/08/13 11:37:37;;;;;;;3.87;2.10;;;27.00;99.90;;;;;;4827121;29;20451;-93
2023/08/13 11:40:10;;;;;;;3.17;1.93;;;27.10;99.90;;;;;;4827845;29;20901;-89
2023/08/13 11:42:58;;;;;;;4.20;2.10;;;26.80;99.90;;;;;;4801784;29;20435;-93
2023/08/13 11:45:27;;;;;;;5.10;2.07;;;27.10;99.90;;;;;;4791409;30;20417;-96
2023/08/13 11:48:18;;;;;;;4.00;2.00;;;27.20;99.90;;;;;;4791243;30;20433;-96
2023/08/13 11:51:07;;;;;;;3.83;2.10;;;27.40;99.90;;;;;;4776460;30;20826;-95
2023/08/13 11:53:46;;;;;;;6.80;2.50;;;27.40;99.90;;;;;;4774577;30;20566;-90
2023/08/13 11:56:13;;;;;;;5.27;2.20;;;27.50;99.90;;;;;;4789925;30;20453;-90
2023/08/13 11:58:39;;;;;;;4.60;2.53;;;27.80;99.90;;;;;;4790286;30;20439;-90
2023/08/13 12:01:05;;;;;;;4.37;2.30;;;27.90;99.90;;;;;;4790656;29;20417;-91
2023/08/13 12:03:35;;;;;;;6.20;2.03;;;28.00;99.90;;;;;;4790749;30;20425;-90
2023/08/13 12:06:00;;;;;;;5.13;2.10;;;28.00;99.90;;;;;;4790457;30;20198;-93
2023/08/13 12:08:28;;;;;;;5.47;1.97;;;28.00;99.90;;;;;;4790209;29;20468;-90
2023/08/13 12:10:53;;;;;;;4.60;2.30;;;28.20;99.90;;;;;;4806175;29;20732;-93
2023/08/13 12:13:19;;;;;;;3.73;2.10;;;28.00;99.90;;;;;;4777146;29;20489;-89
2023/08/13 12:15:45;;;;;;;5.53;2.03;;;28.00;99.90;;;;;;4807977;29;20851;-90
2023/08/13 12:18:49;;;;;;;4.97;2.20;;;27.80;99.90;;;;;;4791709;29;20178;-89
2023/08/13 12:21:15;;;;;;;3.57;2.30;;;28.20;99.90;;;;;;4800127;29;20274;-87
2023/08/13 12:23:40;;;;;;;4.47;1.97;;;27.70;99.90;;;;;;4797744;29;20504;-90
2023/08/13 12:26:10;;;;;;;2.67;1.70;;;28.00;99.90;;;;;;4800476;29;20229;-89
2023/08/13 12:28:35;;;;;;;5.00;2.10;;;27.90;99.90;;;;;;4816365;29;20242;-87
2023/08/13 12:31:01;;;;;;;7.40;1.70;;;27.90;99.90;;;;;;4798710;29;20829;-88
2023/08/13 12:33:26;;;;;;;3.87;2.00;;;27.90;99.90;;;;;;4817523;29;20181;-90
2023/08/13 12:35:52;;;;;;;5.47;2.03;;;27.80;99.90;;;;;;4815032;29;20191;-88
2023/08/13 12:38:17;;;;;;;6.33;1.80;;;27.50;99.90;;;;;;4815045;29;20763;-89
2023/08/13 12:40:43;;;;;;;5.30;1.80;;;27.20;99.90;;;;;;4776495;29;20228;-89
2023/08/13 12:43:08;;;;;;;4.30;2.03;;;27.50;99.90;;;;;;4813952;29;20204;-89
2023/08/13 12:45:35;;;;;;;3.70;1.90;;;27.70;99.90;;;;;;4822801;29;20225;-89